sensor_id;sensor_type;location;lat;lon;timestamp;temperature;humidity
17489;DHT22;8861;52.644;4.734;2023-07-16T00:01:23;18.40;99.90
17489;DHT22;8861;52.644;4.734;2023-07-16T00:03:49;18.40;99.90
17489;DHT22;8861;52.644;4.734;2023-07-16T00:06:16;18.40;99.90
17489;DHT22;8861;52.644;4.734;2023-07-16T00:08:43;18.40;99.90
17489;DHT22;8861;52.644;4.734;2023-07-16T00:11:10;18.40;99.90
17489;DHT22;8861;52.644;4.734;2023-07-16T00:13:39;18.40;99.90
17489;DHT22;8861;52.644;4.734;2023-07-16T00:16:11;18.50;99.90
17489;DHT22;8861;52.644;4.734;2023-07-16T00:18:38;18.50;99.90
17489;DHT22;8861;52.644;4.734;2023-07-16T00:21:05;18.40;99.90
17489;DHT22;8861;52.644;4.734;2023-07-16T00:23:32;18.40;99.90
17489;DHT22;8861;52.644;4.734;2023-07-16T00:25:59;18.50;99.90
17489;DHT22;8861;52.644;4.734;2023-07-16T00:28:26;18.40;99.90
17489;DHT22;8861;52.644;4.734;2023-07-16T00:30:55;18.40;99.90
17489;DHT22;8861;52.644;4.734;2023-07-16T00:33:22;18.30;99.90
17489;DHT22;8861;52.644;4.734;2023-07-16T00:35:49;18.30;99.90
17489;DHT22;8861;52.644;4.734;2023-07-16T00:38:17;18.40;99.90
17489;DHT22;8861;52.644;4.734;2023-07-16T00:40:44;18.40;99.90
17489;DHT22;8861;52.644;4.734;2023-07-16T00:43:11;18.40;99.90
17489;DHT22;8861;52.644;4.734;2023-07-16T00:45:39;18.40;99.90
17489;DHT22;8861;52.644;4.734;2023-07-16T00:48:08;18.40;99.90
17489;DHT22;8861;52.644;4.734;2023-07-16T00:50:36;18.50;99.90
17489;DHT22;8861;52.644;4.734;2023-07-16T00:53:05;18.50;99.90
17489;DHT22;8861;52.644;4.734;2023-07-16T00:55:33;18.60;99.90
17489;DHT22;8861;52.644;4.734;2023-07-16T00:58:03;18.60;99.90
17489;DHT22;8861;52.644;4.734;2023-07-16T01:00:31;18.60;99.90
17489;DHT22;8861;52.644;4.734;2023-07-16T01:02:58;18.50;99.90
17489;DHT22;8861;52.644;4.734;2023-07-16T01:05:33;18.50;99.90
17489;DHT22;8861;52.644;4.734;2023-07-16T01:08:04;18.50;99.90
17489;DHT22;8861;52.644;4.734;2023-07-16T01:10:32;18.50;99.90
17489;DHT22;8861;52.644;4.734;2023-07-16T01:13:00;18.50;99.90
17489;DHT22;8861;52.644;4.734;2023-07-16T01:15:27;18.50;99.90
17489;DHT22;8861;52.644;4.734;2023-07-16T01:17:54;18.40;99.90
17489;DHT22;8861;52.644;4.734;2023-07-16T01:20:21;18.40;99.90
17489;DHT22;8861;52.644;4.734;2023-07-16T01:26:05;18.50;99.90
17489;DHT22;8861;52.644;4.734;2023-07-16T01:31:28;18.40;99.90
17489;DHT22;8861;52.644;4.734;2023-07-16T01:33:56;18.40;99.90
17489;DHT22;8861;52.644;4.734;2023-07-16T01:36:24;18.40;99.90
17489;DHT22;8861;52.644;4.734;2023-07-16T01:38:52;18.40;99.90
17489;DHT22;8861;52.644;4.734;2023-07-16T01:41:19;18.40;99.90
17489;DHT22;8861;52.644;4.734;2023-07-16T01:43:46;18.40;99.90
17489;DHT22;8861;52.644;4.734;2023-07-16T01:46:13;18.40;99.90
17489;DHT22;8861;52.644;4.734;2023-07-16T01:48:42;18.40;99.90
17489;DHT22;8861;52.644;4.734;2023-07-16T01:51:09;18.50;99.90
17489;DHT22;8861;52.644;4.734;2023-07-16T01:53:39;18.50;99.90
17489;DHT22;8861;52.644;4.734;2023-07-16T01:56:06;18.40;99.90
17489;DHT22;8861;52.644;4.734;2023-07-16T01:58:33;18.50;99.90
17489;DHT22;8861;52.644;4.734;2023-07-16T02:01:00;18.50;99.90
17489;DHT22;8861;52.644;4.734;2023-07-16T02:03:27;18.50;99.90
17489;DHT22;8861;52.644;4.734;2023-07-16T02:05:56;18.50;99.90
17489;DHT22;8861;52.644;4.734;2023-07-16T02:08:23;18.50;99.90
17489;DHT22;8861;52.644;4.734;2023-07-16T02:10:50;18.50;99.90
17489;DHT22;8861;52.644;4.734;2023-07-16T02:13:17;18.50;99.90
17489;DHT22;8861;52.644;4.734;2023-07-16T02:15:44;18.50;99.90
17489;DHT22;8861;52.644;4.734;2023-07-16T02:18:11;18.60;99.90
17489;DHT22;8861;52.644;4.734;2023-07-16T02:20:38;18.50;99.90
17489;DHT22;8861;52.644;4.734;2023-07-16T02:23:06;18.50;99.90
17489;DHT22;8861;52.644;4.734;2023-07-16T02:25:33;18.40;99.90
17489;DHT22;8861;52.644;4.734;2023-07-16T02:28:00;18.40;99.90
17489;DHT22;8861;52.644;4.734;2023-07-16T02:30:27;18.40;99.90
17489;DHT22;8861;52.644;4.734;2023-07-16T02:32:54;18.40;99.90
17489;DHT22;8861;52.644;4.734;2023-07-16T02:35:21;18.40;99.90
17489;DHT22;8861;52.644;4.734;2023-07-16T02:37:48;18.40;99.90
17489;DHT22;8861;52.644;4.734;2023-07-16T02:40:17;18.50;99.90
17489;DHT22;8861;52.644;4.734;2023-07-16T02:42:44;18.60;99.90
17489;DHT22;8861;52.644;4.734;2023-07-16T02:45:11;18.60;99.90
17489;DHT22;8861;52.644;4.734;2023-07-16T02:47:38;18.70;99.90
17489;DHT22;8861;52.644;4.734;2023-07-16T02:50:06;18.70;99.90
17489;DHT22;8861;52.644;4.734;2023-07-16T02:52:33;18.60;99.90
17489;DHT22;8861;52.644;4.734;2023-07-16T02:55:00;18.60;99.90
17489;DHT22;8861;52.644;4.734;2023-07-16T02:57:29;18.60;99.90
17489;DHT22;8861;52.644;4.734;2023-07-16T02:59:56;18.60;99.90
17489;DHT22;8861;52.644;4.734;2023-07-16T03:02:23;18.60;99.90
17489;DHT22;8861;52.644;4.734;2023-07-16T03:04:50;18.50;99.90
17489;DHT22;8861;52.644;4.734;2023-07-16T03:07:17;18.40;99.90
17489;DHT22;8861;52.644;4.734;2023-07-16T03:09:44;18.40;99.90
17489;DHT22;8861;52.644;4.734;2023-07-16T03:12:11;18.40;99.90
17489;DHT22;8861;52.644;4.734;2023-07-16T03:14:40;18.40;99.90
17489;DHT22;8861;52.644;4.734;2023-07-16T03:17:07;18.40;99.90
17489;DHT22;8861;52.644;4.734;2023-07-16T03:19:34;18.40;99.90
17489;DHT22;8861;52.644;4.734;2023-07-16T03:22:01;18.40;99.90
17489;DHT22;8861;52.644;4.734;2023-07-16T03:24:28;18.40;99.90
17489;DHT22;8861;52.644;4.734;2023-07-16T03:26:55;18.40;99.90
17489;DHT22;8861;52.644;4.734;2023-07-16T03:29:22;18.40;99.90
17489;DHT22;8861;52.644;4.734;2023-07-16T03:31:50;18.40;99.90
17489;DHT22;8861;52.644;4.734;2023-07-16T03:34:17;18.30;99.90
17489;DHT22;8861;52.644;4.734;2023-07-16T03:36:44;18.30;99.90
17489;DHT22;8861;52.644;4.734;2023-07-16T03:39:11;18.30;99.90
17489;DHT22;8861;52.644;4.734;2023-07-16T03:41:39;18.30;99.90
17489;DHT22;8861;52.644;4.734;2023-07-16T03:44:06;18.20;99.90
17489;DHT22;8861;52.644;4.734;2023-07-16T03:46:33;18.20;99.90
17489;DHT22;8861;52.644;4.734;2023-07-16T03:49:02;18.30;99.90
17489;DHT22;8861;52.644;4.734;2023-07-16T03:51:29;18.30;99.90
17489;DHT22;8861;52.644;4.734;2023-07-16T03:53:56;18.20;99.90
17489;DHT22;8861;52.644;4.734;2023-07-16T03:56:23;18.20;99.90
17489;DHT22;8861;52.644;4.734;2023-07-16T03:58:50;18.20;99.90
17489;DHT22;8861;52.644;4.734;2023-07-16T04:01:17;18.10;99.90
17489;DHT22;8861;52.644;4.734;2023-07-16T04:03:45;18.10;99.90
17489;DHT22;8861;52.644;4.734;2023-07-16T04:06:14;18.10;99.90
17489;DHT22;8861;52.644;4.734;2023-07-16T04:08:41;18.10;99.90
17489;DHT22;8861;52.644;4.734;2023-07-16T04:11:08;18.20;99.90
17489;DHT22;8861;52.644;4.734;2023-07-16T04:13:35;18.30;99.90
17489;DHT22;8861;52.644;4.734;2023-07-16T04:16:02;18.30;99.90
17489;DHT22;8861;52.644;4.734;2023-07-16T04:18:29;18.30;99.90
17489;DHT22;8861;52.644;4.734;2023-07-16T04:20:56;18.40;99.90
17489;DHT22;8861;52.644;4.734;2023-07-16T04:23:24;18.30;99.90
17489;DHT22;8861;52.644;4.734;2023-07-16T04:25:52;18.30;99.90
17489;DHT22;8861;52.644;4.734;2023-07-16T04:28:20;18.30;99.90
17489;DHT22;8861;52.644;4.734;2023-07-16T04:30:46;18.30;99.90
17489;DHT22;8861;52.644;4.734;2023-07-16T04:33:13;18.30;99.90
17489;DHT22;8861;52.644;4.734;2023-07-16T04:35:40;18.30;99.90
17489;DHT22;8861;52.644;4.734;2023-07-16T04:38:07;18.40;99.90
17489;DHT22;8861;52.644;4.734;2023-07-16T04:40:36;18.40;99.90
17489;DHT22;8861;52.644;4.734;2023-07-16T04:43:03;18.40;99.90
17489;DHT22;8861;52.644;4.734;2023-07-16T04:45:30;18.50;99.90
17489;DHT22;8861;52.644;4.734;2023-07-16T04:47:57;18.50;99.90
17489;DHT22;8861;52.644;4.734;2023-07-16T04:50:24;18.40;99.90
17489;DHT22;8861;52.644;4.734;2023-07-16T04:52:51;18.50;99.90
17489;DHT22;8861;52.644;4.734;2023-07-16T04:55:19;18.50;99.90
17489;DHT22;8861;52.644;4.734;2023-07-16T04:57:47;18.50;99.90
17489;DHT22;8861;52.644;4.734;2023-07-16T05:00:14;18.40;99.90
17489;DHT22;8861;52.644;4.734;2023-07-16T05:02:41;18.40;99.90
17489;DHT22;8861;52.644;4.734;2023-07-16T05:05:08;18.50;99.90
17489;DHT22;8861;52.644;4.734;2023-07-16T05:07:36;18.50;99.90
17489;DHT22;8861;52.644;4.734;2023-07-16T05:10:03;18.60;99.90
17489;DHT22;8861;52.644;4.734;2023-07-16T05:12:31;18.60;99.90
17489;DHT22;8861;52.644;4.734;2023-07-16T05:14:59;18.60;99.90
17489;DHT22;8861;52.644;4.734;2023-07-16T05:17:26;18.70;99.90
17489;DHT22;8861;52.644;4.734;2023-07-16T05:19:53;18.80;99.90
17489;DHT22;8861;52.644;4.734;2023-07-16T05:22:20;18.80;99.90
17489;DHT22;8861;52.644;4.734;2023-07-16T05:24:47;18.80;99.90
17489;DHT22;8861;52.644;4.734;2023-07-16T05:27:14;18.80;99.90
17489;DHT22;8861;52.644;4.734;2023-07-16T05:29:44;18.80;99.90
17489;DHT22;8861;52.644;4.734;2023-07-16T05:32:12;18.90;99.90
17489;DHT22;8861;52.644;4.734;2023-07-16T05:34:39;18.90;99.90
17489;DHT22;8861;52.644;4.734;2023-07-16T05:37:06;18.90;99.90
17489;DHT22;8861;52.644;4.734;2023-07-16T05:39:33;18.90;99.90
17489;DHT22;8861;52.644;4.734;2023-07-16T05:42:00;19.00;99.90
17489;DHT22;8861;52.644;4.734;2023-07-16T05:44:28;19.00;99.90
17489;DHT22;8861;52.644;4.734;2023-07-16T05:46:55;19.00;99.90
17489;DHT22;8861;52.644;4.734;2023-07-16T05:49:23;18.90;99.90
17489;DHT22;8861;52.644;4.734;2023-07-16T05:51:51;18.80;99.90
17489;DHT22;8861;52.644;4.734;2023-07-16T05:54:18;18.80;99.90
17489;DHT22;8861;52.644;4.734;2023-07-16T05:56:45;18.90;99.90
17489;DHT22;8861;52.644;4.734;2023-07-16T05:59:12;18.90;99.90
17489;DHT22;8861;52.644;4.734;2023-07-16T06:01:39;18.90;99.90
17489;DHT22;8861;52.644;4.734;2023-07-16T06:04:06;18.90;99.90
17489;DHT22;8861;52.644;4.734;2023-07-16T06:06:34;19.00;99.90
17489;DHT22;8861;52.644;4.734;2023-07-16T06:09:01;19.00;99.90
17489;DHT22;8861;52.644;4.734;2023-07-16T06:11:28;19.00;99.90
17489;DHT22;8861;52.644;4.734;2023-07-16T06:13:55;19.10;99.90
17489;DHT22;8861;52.644;4.734;2023-07-16T06:16:22;19.10;99.90
17489;DHT22;8861;52.644;4.734;2023-07-16T06:18:49;19.00;99.90
17489;DHT22;8861;52.644;4.734;2023-07-16T06:21:16;18.90;99.90
17489;DHT22;8861;52.644;4.734;2023-07-16T06:23:44;18.90;99.90
17489;DHT22;8861;52.644;4.734;2023-07-16T06:26:11;18.80;99.90
17489;DHT22;8861;52.644;4.734;2023-07-16T06:28:38;18.90;99.90
17489;DHT22;8861;52.644;4.734;2023-07-16T06:31:05;19.00;99.90
17489;DHT22;8861;52.644;4.734;2023-07-16T06:33:32;19.20;99.90
17489;DHT22;8861;52.644;4.734;2023-07-16T06:35:59;19.20;99.90
17489;DHT22;8861;52.644;4.734;2023-07-16T06:38:26;19.20;99.90
17489;DHT22;8861;52.644;4.734;2023-07-16T06:40:55;19.20;99.90
17489;DHT22;8861;52.644;4.734;2023-07-16T06:43:22;19.20;99.90
17489;DHT22;8861;52.644;4.734;2023-07-16T06:45:49;19.20;99.90
17489;DHT22;8861;52.644;4.734;2023-07-16T06:48:16;19.10;99.90
17489;DHT22;8861;52.644;4.734;2023-07-16T06:50:43;19.20;99.90
17489;DHT22;8861;52.644;4.734;2023-07-16T06:53:10;19.20;99.90
17489;DHT22;8861;52.644;4.734;2023-07-16T06:55:37;19.40;99.90
17489;DHT22;8861;52.644;4.734;2023-07-16T06:58:09;19.40;99.90
17489;DHT22;8861;52.644;4.734;2023-07-16T07:00:36;19.40;99.90
17489;DHT22;8861;52.644;4.734;2023-07-16T07:03:03;19.40;99.90
17489;DHT22;8861;52.644;4.734;2023-07-16T07:05:30;19.30;99.90
17489;DHT22;8861;52.644;4.734;2023-07-16T07:07:57;19.20;99.90
17489;DHT22;8861;52.644;4.734;2023-07-16T07:10:24;19.10;99.90
17489;DHT22;8861;52.644;4.734;2023-07-16T07:12:51;19.20;99.90
17489;DHT22;8861;52.644;4.734;2023-07-16T07:15:20;19.40;99.90
17489;DHT22;8861;52.644;4.734;2023-07-16T07:17:47;19.40;99.90
17489;DHT22;8861;52.644;4.734;2023-07-16T07:20:15;19.40;99.90
17489;DHT22;8861;52.644;4.734;2023-07-16T07:22:42;19.30;99.90
17489;DHT22;8861;52.644;4.734;2023-07-16T07:25:09;19.30;99.90
17489;DHT22;8861;52.644;4.734;2023-07-16T07:27:37;19.30;99.90
17489;DHT22;8861;52.644;4.734;2023-07-16T07:30:05;19.20;99.90
17489;DHT22;8861;52.644;4.734;2023-07-16T07:32:36;19.20;99.90
17489;DHT22;8861;52.644;4.734;2023-07-16T07:35:04;19.10;99.90
17489;DHT22;8861;52.644;4.734;2023-07-16T07:37:32;19.20;99.90
17489;DHT22;8861;52.644;4.734;2023-07-16T07:39:59;19.30;99.90
17489;DHT22;8861;52.644;4.734;2023-07-16T07:42:26;19.40;99.90
17489;DHT22;8861;52.644;4.734;2023-07-16T07:44:54;19.50;99.90
17489;DHT22;8861;52.644;4.734;2023-07-16T07:47:21;19.60;99.90
17489;DHT22;8861;52.644;4.734;2023-07-16T07:49:50;19.60;99.90
17489;DHT22;8861;52.644;4.734;2023-07-16T07:52:17;19.70;99.90
17489;DHT22;8861;52.644;4.734;2023-07-16T07:54:44;19.60;99.90
17489;DHT22;8861;52.644;4.734;2023-07-16T07:57:11;19.60;99.90
17489;DHT22;8861;52.644;4.734;2023-07-16T07:59:38;19.60;99.90
17489;DHT22;8861;52.644;4.734;2023-07-16T08:02:05;19.70;99.90
17489;DHT22;8861;52.644;4.734;2023-07-16T08:04:32;19.70;99.90
17489;DHT22;8861;52.644;4.734;2023-07-16T08:07:01;19.70;99.90
17489;DHT22;8861;52.644;4.734;2023-07-16T08:09:28;19.70;99.90
17489;DHT22;8861;52.644;4.734;2023-07-16T08:11:55;19.80;99.90
17489;DHT22;8861;52.644;4.734;2023-07-16T08:14:22;19.90;99.90
17489;DHT22;8861;52.644;4.734;2023-07-16T08:16:49;20.00;99.90
17489;DHT22;8861;52.644;4.734;2023-07-16T08:19:16;20.20;99.90
17489;DHT22;8861;52.644;4.734;2023-07-16T08:21:44;20.40;99.90
17489;DHT22;8861;52.644;4.734;2023-07-16T08:24:12;20.50;99.90
17489;DHT22;8861;52.644;4.734;2023-07-16T08:26:39;20.70;99.90
17489;DHT22;8861;52.644;4.734;2023-07-16T08:29:06;20.80;99.90
17489;DHT22;8861;52.644;4.734;2023-07-16T08:31:33;20.90;99.90
17489;DHT22;8861;52.644;4.734;2023-07-16T08:34:00;20.80;99.90
17489;DHT22;8861;52.644;4.734;2023-07-16T08:36:27;20.80;99.90
17489;DHT22;8861;52.644;4.734;2023-07-16T08:38:54;20.90;99.90
17489;DHT22;8861;52.644;4.734;2023-07-16T08:41:22;20.80;99.90
17489;DHT22;8861;52.644;4.734;2023-07-16T08:43:50;20.70;99.90
17489;DHT22;8861;52.644;4.734;2023-07-16T08:46:18;20.70;99.90
17489;DHT22;8861;52.644;4.734;2023-07-16T08:48:45;20.70;99.90
17489;DHT22;8861;52.644;4.734;2023-07-16T08:51:14;20.70;99.90
17489;DHT22;8861;52.644;4.734;2023-07-16T08:53:42;20.70;99.90
17489;DHT22;8861;52.644;4.734;2023-07-16T08:56:09;20.60;99.90
17489;DHT22;8861;52.644;4.734;2023-07-16T08:58:38;20.40;99.90
17489;DHT22;8861;52.644;4.734;2023-07-16T09:01:07;20.30;99.90
17489;DHT22;8861;52.644;4.734;2023-07-16T09:03:35;20.20;99.90
17489;DHT22;8861;52.644;4.734;2023-07-16T09:06:03;20.00;99.90
17489;DHT22;8861;52.644;4.734;2023-07-16T09:08:30;19.70;99.90
17489;DHT22;8861;52.644;4.734;2023-07-16T09:10:58;19.20;99.90
17489;DHT22;8861;52.644;4.734;2023-07-16T09:13:25;18.90;99.90
17489;DHT22;8861;52.644;4.734;2023-07-16T09:15:55;18.70;99.90
17489;DHT22;8861;52.644;4.734;2023-07-16T09:18:24;18.50;99.90
17489;DHT22;8861;52.644;4.734;2023-07-16T09:20:55;18.20;99.90
17489;DHT22;8861;52.644;4.734;2023-07-16T09:23:24;18.10;99.90
17489;DHT22;8861;52.644;4.734;2023-07-16T09:25:53;18.00;99.90
17489;DHT22;8861;52.644;4.734;2023-07-16T09:28:20;17.90;99.90
17489;DHT22;8861;52.644;4.734;2023-07-16T09:30:49;17.80;99.90
17489;DHT22;8861;52.644;4.734;2023-07-16T09:33:19;17.80;99.90
17489;DHT22;8861;52.644;4.734;2023-07-16T09:35:48;17.90;99.90
17489;DHT22;8861;52.644;4.734;2023-07-16T09:38:16;18.10;99.90
17489;DHT22;8861;52.644;4.734;2023-07-16T09:40:44;18.30;99.90
17489;DHT22;8861;52.644;4.734;2023-07-16T09:43:12;18.30;99.90
17489;DHT22;8861;52.644;4.734;2023-07-16T09:45:40;18.10;99.90
17489;DHT22;8861;52.644;4.734;2023-07-16T09:48:07;18.10;99.90
17489;DHT22;8861;52.644;4.734;2023-07-16T09:50:36;18.10;99.90
17489;DHT22;8861;52.644;4.734;2023-07-16T09:53:04;18.20;99.90
17489;DHT22;8861;52.644;4.734;2023-07-16T09:55:34;18.50;99.90
17489;DHT22;8861;52.644;4.734;2023-07-16T09:58:03;18.80;99.90
17489;DHT22;8861;52.644;4.734;2023-07-16T10:00:32;19.20;99.90
17489;DHT22;8861;52.644;4.734;2023-07-16T10:03:00;19.60;99.90
17489;DHT22;8861;52.644;4.734;2023-07-16T10:05:28;19.70;99.90
17489;DHT22;8861;52.644;4.734;2023-07-16T10:07:58;20.00;99.90
17489;DHT22;8861;52.644;4.734;2023-07-16T10:10:26;20.20;99.90
17489;DHT22;8861;52.644;4.734;2023-07-16T10:12:57;20.20;99.90
17489;DHT22;8861;52.644;4.734;2023-07-16T10:15:26;20.10;99.90
17489;DHT22;8861;52.644;4.734;2023-07-16T10:17:54;20.00;99.90
17489;DHT22;8861;52.644;4.734;2023-07-16T10:20:29;19.90;99.90
17489;DHT22;8861;52.644;4.734;2023-07-16T10:22:57;20.00;99.90
17489;DHT22;8861;52.644;4.734;2023-07-16T10:25:26;20.00;99.90
17489;DHT22;8861;52.644;4.734;2023-07-16T10:27:55;20.00;99.90
17489;DHT22;8861;52.644;4.734;2023-07-16T10:30:22;20.00;99.90
17489;DHT22;8861;52.644;4.734;2023-07-16T10:32:51;20.00;99.90
17489;DHT22;8861;52.644;4.734;2023-07-16T10:35:19;20.00;99.90
17489;DHT22;8861;52.644;4.734;2023-07-16T10:37:46;20.00;99.90
17489;DHT22;8861;52.644;4.734;2023-07-16T10:40:15;20.00;99.90
17489;DHT22;8861;52.644;4.734;2023-07-16T10:42:43;20.00;99.90
17489;DHT22;8861;52.644;4.734;2023-07-16T10:45:12;20.10;99.90
17489;DHT22;8861;52.644;4.734;2023-07-16T10:47:50;20.50;99.90
17489;DHT22;8861;52.644;4.734;2023-07-16T10:50:19;20.70;99.90
17489;DHT22;8861;52.644;4.734;2023-07-16T10:52:50;21.00;99.90
17489;DHT22;8861;52.644;4.734;2023-07-16T10:55:19;21.20;99.90
17489;DHT22;8861;52.644;4.734;2023-07-16T10:57:47;20.70;99.90
17489;DHT22;8861;52.644;4.734;2023-07-16T11:00:15;20.10;99.90
17489;DHT22;8861;52.644;4.734;2023-07-16T11:02:42;19.70;99.90
17489;DHT22;8861;52.644;4.734;2023-07-16T11:05:10;19.60;99.90
17489;DHT22;8861;52.644;4.734;2023-07-16T11:07:38;19.50;99.90
17489;DHT22;8861;52.644;4.734;2023-07-16T11:10:05;19.40;99.90
17489;DHT22;8861;52.644;4.734;2023-07-16T11:12:35;19.30;99.90
17489;DHT22;8861;52.644;4.734;2023-07-16T11:15:02;19.30;99.90
17489;DHT22;8861;52.644;4.734;2023-07-16T11:17:29;19.20;99.90
17489;DHT22;8861;52.644;4.734;2023-07-16T11:20:00;19.20;99.90
17489;DHT22;8861;52.644;4.734;2023-07-16T11:22:28;19.30;99.90
17489;DHT22;8861;52.644;4.734;2023-07-16T11:24:55;19.50;99.90
17489;DHT22;8861;52.644;4.734;2023-07-16T11:27:24;19.70;99.90
17489;DHT22;8861;52.644;4.734;2023-07-16T11:29:54;20.00;99.90
17489;DHT22;8861;52.644;4.734;2023-07-16T11:32:33;20.30;99.90
17489;DHT22;8861;52.644;4.734;2023-07-16T11:35:01;20.50;99.90
17489;DHT22;8861;52.644;4.734;2023-07-16T11:37:29;20.50;99.90
17489;DHT22;8861;52.644;4.734;2023-07-16T11:39:57;20.70;99.90
17489;DHT22;8861;52.644;4.734;2023-07-16T11:42:27;20.90;99.90
17489;DHT22;8861;52.644;4.734;2023-07-16T11:44:56;21.00;99.90
17489;DHT22;8861;52.644;4.734;2023-07-16T11:47:23;21.20;99.90
17489;DHT22;8861;52.644;4.734;2023-07-16T11:49:50;21.30;99.90
17489;DHT22;8861;52.644;4.734;2023-07-16T11:52:19;21.30;99.90
17489;DHT22;8861;52.644;4.734;2023-07-16T11:54:47;21.10;99.90
17489;DHT22;8861;52.644;4.734;2023-07-16T11:57:14;21.00;99.90
17489;DHT22;8861;52.644;4.734;2023-07-16T11:59:41;20.80;99.90
17489;DHT22;8861;52.644;4.734;2023-07-16T12:02:09;20.70;99.90
17489;DHT22;8861;52.644;4.734;2023-07-16T12:04:36;20.80;99.90
17489;DHT22;8861;52.644;4.734;2023-07-16T12:07:04;20.90;99.90
17489;DHT22;8861;52.644;4.734;2023-07-16T12:09:31;21.10;99.90
17489;DHT22;8861;52.644;4.734;2023-07-16T12:11:58;21.40;99.90
17489;DHT22;8861;52.644;4.734;2023-07-16T12:14:26;21.70;99.90
17489;DHT22;8861;52.644;4.734;2023-07-16T12:16:53;21.80;99.90
17489;DHT22;8861;52.644;4.734;2023-07-16T12:19:21;22.00;99.90
17489;DHT22;8861;52.644;4.734;2023-07-16T12:21:48;22.80;99.90
17489;DHT22;8861;52.644;4.734;2023-07-16T12:24:15;23.80;99.90
17489;DHT22;8861;52.644;4.734;2023-07-16T12:26:43;24.50;99.90
17489;DHT22;8861;52.644;4.734;2023-07-16T12:29:10;25.10;99.90
17489;DHT22;8861;52.644;4.734;2023-07-16T12:31:37;25.30;99.90
17489;DHT22;8861;52.644;4.734;2023-07-16T12:34:04;24.90;99.90
17489;DHT22;8861;52.644;4.734;2023-07-16T12:36:32;24.30;99.90
17489;DHT22;8861;52.644;4.734;2023-07-16T12:38:59;24.00;99.90
17489;DHT22;8861;52.644;4.734;2023-07-16T12:41:26;23.80;99.90
17489;DHT22;8861;52.644;4.734;2023-07-16T12:43:53;23.60;99.90
17489;DHT22;8861;52.644;4.734;2023-07-16T12:46:21;23.50;99.90
17489;DHT22;8861;52.644;4.734;2023-07-16T12:48:48;23.30;99.90
17489;DHT22;8861;52.644;4.734;2023-07-16T12:51:15;23.00;99.90
17489;DHT22;8861;52.644;4.734;2023-07-16T12:53:43;22.90;99.90
17489;DHT22;8861;52.644;4.734;2023-07-16T12:56:10;23.00;99.90
17489;DHT22;8861;52.644;4.734;2023-07-16T12:58:37;23.10;99.90
17489;DHT22;8861;52.644;4.734;2023-07-16T13:01:04;22.90;99.90
17489;DHT22;8861;52.644;4.734;2023-07-16T13:03:31;22.80;99.90
17489;DHT22;8861;52.644;4.734;2023-07-16T13:05:58;22.70;99.90
17489;DHT22;8861;52.644;4.734;2023-07-16T13:08:25;22.50;99.90
17489;DHT22;8861;52.644;4.734;2023-07-16T13:10:53;22.40;99.90
17489;DHT22;8861;52.644;4.734;2023-07-16T13:13:21;22.50;99.90
17489;DHT22;8861;52.644;4.734;2023-07-16T13:15:48;22.60;99.90
17489;DHT22;8861;52.644;4.734;2023-07-16T13:18:14;22.60;99.90
17489;DHT22;8861;52.644;4.734;2023-07-16T13:20:42;22.70;99.90
17489;DHT22;8861;52.644;4.734;2023-07-16T13:23:09;22.70;99.90
17489;DHT22;8861;52.644;4.734;2023-07-16T13:25:36;22.50;99.90
17489;DHT22;8861;52.644;4.734;2023-07-16T13:28:05;22.30;99.90
17489;DHT22;8861;52.644;4.734;2023-07-16T13:30:32;22.10;99.90
17489;DHT22;8861;52.644;4.734;2023-07-16T13:33:00;22.20;99.90
17489;DHT22;8861;52.644;4.734;2023-07-16T13:35:27;22.20;99.90
17489;DHT22;8861;52.644;4.734;2023-07-16T13:37:54;22.20;99.90
17489;DHT22;8861;52.644;4.734;2023-07-16T13:40:21;22.30;99.90
17489;DHT22;8861;52.644;4.734;2023-07-16T13:42:48;22.40;99.90
17489;DHT22;8861;52.644;4.734;2023-07-16T13:45:16;22.40;99.90
17489;DHT22;8861;52.644;4.734;2023-07-16T13:47:43;22.30;99.90
17489;DHT22;8861;52.644;4.734;2023-07-16T13:50:10;22.20;99.90
17489;DHT22;8861;52.644;4.734;2023-07-16T13:52:38;22.30;99.90
17489;DHT22;8861;52.644;4.734;2023-07-16T13:55:05;22.30;99.90
17489;DHT22;8861;52.644;4.734;2023-07-16T13:57:33;22.30;99.90
17489;DHT22;8861;52.644;4.734;2023-07-16T14:00:00;22.30;99.90
17489;DHT22;8861;52.644;4.734;2023-07-16T14:02:31;22.30;99.90
17489;DHT22;8861;52.644;4.734;2023-07-16T14:04:58;22.40;99.90
17489;DHT22;8861;52.644;4.734;2023-07-16T14:07:25;22.50;99.90
17489;DHT22;8861;52.644;4.734;2023-07-16T14:09:52;22.70;99.90
17489;DHT22;8861;52.644;4.734;2023-07-16T14:12:19;23.00;99.90
17489;DHT22;8861;52.644;4.734;2023-07-16T14:14:47;23.70;99.90
17489;DHT22;8861;52.644;4.734;2023-07-16T14:17:14;24.50;99.90
17489;DHT22;8861;52.644;4.734;2023-07-16T14:19:43;24.90;99.90
17489;DHT22;8861;52.644;4.734;2023-07-16T14:22:10;25.20;99.90
17489;DHT22;8861;52.644;4.734;2023-07-16T14:24:38;25.30;99.90
17489;DHT22;8861;52.644;4.734;2023-07-16T14:27:06;25.40;99.90
17489;DHT22;8861;52.644;4.734;2023-07-16T14:29:34;25.60;99.90
17489;DHT22;8861;52.644;4.734;2023-07-16T14:32:01;25.60;99.90
17489;DHT22;8861;52.644;4.734;2023-07-16T14:34:28;25.50;99.90
17489;DHT22;8861;52.644;4.734;2023-07-16T14:36:56;25.10;99.90
17489;DHT22;8861;52.644;4.734;2023-07-16T14:39:23;24.60;99.90
17489;DHT22;8861;52.644;4.734;2023-07-16T14:41:50;24.20;99.90
17489;DHT22;8861;52.644;4.734;2023-07-16T14:44:17;24.00;99.90
17489;DHT22;8861;52.644;4.734;2023-07-16T14:46:44;23.90;99.90
17489;DHT22;8861;52.644;4.734;2023-07-16T14:49:11;24.10;99.90
17489;DHT22;8861;52.644;4.734;2023-07-16T14:51:38;24.30;99.90
17489;DHT22;8861;52.644;4.734;2023-07-16T14:54:08;24.30;99.90
17489;DHT22;8861;52.644;4.734;2023-07-16T14:56:35;24.10;99.90
17489;DHT22;8861;52.644;4.734;2023-07-16T14:59:03;24.00;99.90
17489;DHT22;8861;52.644;4.734;2023-07-16T15:01:30;24.10;99.90
17489;DHT22;8861;52.644;4.734;2023-07-16T15:03:57;25.40;99.90
17489;DHT22;8861;52.644;4.734;2023-07-16T15:06:24;26.70;99.90
17489;DHT22;8861;52.644;4.734;2023-07-16T15:08:53;28.00;99.90
17489;DHT22;8861;52.644;4.734;2023-07-16T15:11:21;29.30;99.90
17489;DHT22;8861;52.644;4.734;2023-07-16T15:13:48;30.20;99.90
17489;DHT22;8861;52.644;4.734;2023-07-16T15:16:16;30.60;99.90
17489;DHT22;8861;52.644;4.734;2023-07-16T15:18:42;30.60;99.90
17489;DHT22;8861;52.644;4.734;2023-07-16T15:21:11;30.30;99.90
17489;DHT22;8861;52.644;4.734;2023-07-16T15:23:38;29.70;99.90
17489;DHT22;8861;52.644;4.734;2023-07-16T15:26:05;29.40;99.90
17489;DHT22;8861;52.644;4.734;2023-07-16T15:28:38;29.10;99.90
17489;DHT22;8861;52.644;4.734;2023-07-16T15:31:09;28.90;99.90
17489;DHT22;8861;52.644;4.734;2023-07-16T15:33:40;28.60;99.90
17489;DHT22;8861;52.644;4.734;2023-07-16T15:36:07;28.30;99.90
17489;DHT22;8861;52.644;4.734;2023-07-16T15:38:34;28.00;99.90
17489;DHT22;8861;52.644;4.734;2023-07-16T15:41:01;27.50;99.90
17489;DHT22;8861;52.644;4.734;2023-07-16T15:43:28;26.70;99.90
17489;DHT22;8861;52.644;4.734;2023-07-16T15:45:56;26.10;99.90
17489;DHT22;8861;52.644;4.734;2023-07-16T15:48:23;25.50;99.90
17489;DHT22;8861;52.644;4.734;2023-07-16T15:50:56;25.00;99.90
17489;DHT22;8861;52.644;4.734;2023-07-16T15:53:23;24.60;99.90